createdAt,value
2023-02-19T00:01:57.293Z,10.08
2023-02-19T00:04:25.601Z,10.08
2023-02-19T00:06:55.224Z,10.07
2023-02-19T00:09:23.431Z,10.08
2023-02-19T00:11:51.689Z,10.07
2023-02-19T00:14:22.341Z,10.12
2023-02-19T00:16:50.923Z,10.08
2023-02-19T00:19:21.148Z,9.91
2023-02-19T00:21:50.858Z,9.88
2023-02-19T00:24:21.105Z,9.84
2023-02-19T00:26:49.589Z,9.82
2023-02-19T00:29:20.660Z,9.88
2023-02-19T00:31:49.256Z,9.94
2023-02-19T00:34:17.776Z,10.01
2023-02-19T00:36:46.822Z,10.02
2023-02-19T00:39:18.622Z,9.97
2023-02-19T00:41:50.014Z,10.06
2023-02-19T00:44:18.386Z,10.00
2023-02-19T00:46:48.102Z,9.95
2023-02-19T00:49:19.252Z,9.95
2023-02-19T00:51:48.256Z,10.02
2023-02-19T00:54:16.949Z,10.01
2023-02-19T00:56:45.250Z,10.06
2023-02-19T00:59:15.313Z,10.04
2023-02-19T01:01:45.047Z,10.05
2023-02-19T01:04:13.898Z,10.06
2023-02-19T01:06:42.286Z,10.06
2023-02-19T01:09:12.049Z,10.08
2023-02-19T01:11:40.321Z,10.12
2023-02-19T01:14:08.540Z,10.10
2023-02-19T01:16:38.357Z,10.11
2023-02-19T01:19:06.539Z,10.16
2023-02-19T01:21:34.800Z,10.17
2023-02-19T01:24:02.930Z,10.18
2023-02-19T01:26:33.790Z,10.20
2023-02-19T01:29:02.940Z,10.18
2023-02-19T01:31:31.438Z,10.09
2023-02-19T01:34:03.076Z,9.98
2023-02-19T01:36:34.143Z,9.94
2023-02-19T01:39:04.125Z,9.85
2023-02-19T01:41:33.473Z,9.79
2023-02-19T01:44:09.110Z,9.75
2023-02-19T01:46:38.603Z,9.67
2023-02-19T01:49:11.912Z,9.66
2023-02-19T01:51:46.151Z,9.63
2023-02-19T01:54:16.859Z,9.49
2023-02-19T01:56:47.870Z,9.46
2023-02-19T01:59:17.552Z,9.35
2023-02-19T02:01:56.460Z,9.27
2023-02-19T02:04:26.083Z,9.20
2023-02-19T02:06:56.266Z,9.21
2023-02-19T02:09:45.373Z,9.22
2023-02-19T02:12:13.761Z,9.31
2023-02-19T02:14:45.119Z,9.31
2023-02-19T02:17:22.205Z,9.38
2023-02-19T02:20:04.389Z,9.43
2023-02-19T02:22:39.154Z,9.47
2023-02-19T02:25:29.780Z,9.51
2023-02-19T02:28:08.281Z,9.45
2023-02-19T02:30:47.534Z,9.44
2023-02-19T02:33:26.493Z,9.46
2023-02-19T02:35:59.916Z,9.47
2023-02-19T02:38:33.103Z,9.43
2023-02-19T02:41:01.665Z,9.43
2023-02-19T02:43:29.945Z,9.40
2023-02-19T02:45:59.895Z,9.41
2023-02-19T02:48:34.336Z,9.33
2023-02-19T02:51:09.962Z,9.42
2023-02-19T02:54:00.317Z,9.37
2023-02-19T02:56:29.245Z,9.37
2023-02-19T02:58:59.634Z,9.36
2023-02-19T03:01:49.508Z,9.27
2023-02-19T03:04:25.343Z,9.22
2023-02-19T03:06:55.028Z,9.23
2023-02-19T03:09:30.386Z,9.20
2023-02-19T03:12:19.416Z,9.22
2023-02-19T03:15:07.438Z,9.30
2023-02-19T03:18:00.710Z,9.29
2023-02-19T03:20:29.918Z,9.28
2023-02-19T03:23:01.200Z,9.28
2023-02-19T03:25:50.324Z,9.18
2023-02-19T03:28:41.306Z,9.06
2023-02-19T03:31:13.389Z,9.15
2023-02-19T03:33:44.498Z,9.08
2023-02-19T03:36:16.651Z,9.03
2023-02-19T03:38:49.834Z,9.01
2023-02-19T03:41:27.755Z,8.94
2023-02-19T03:44:08.992Z,8.89
2023-02-19T03:46:46.870Z,8.86
2023-02-19T03:49:25.600Z,8.77
2023-02-19T03:51:59.287Z,8.66
2023-02-19T03:54:36.550Z,8.70
2023-02-19T03:57:09.884Z,8.59
2023-02-19T03:59:43.395Z,8.47
2023-02-19T04:02:15.201Z,8.48
2023-02-19T04:04:48.820Z,8.42
2023-02-19T04:07:17.514Z,8.42
2023-02-19T04:09:50.228Z,8.58
2023-02-19T04:12:19.316Z,8.63
2023-02-19T04:14:53.431Z,8.64
2023-02-19T04:17:27.416Z,8.66
2023-02-19T04:20:00.227Z,8.60
2023-02-19T04:22:29.178Z,8.63
2023-02-19T04:24:57.674Z,8.55
2023-02-19T04:27:25.958Z,8.55
2023-02-19T04:29:56.456Z,8.39
2023-02-19T04:32:24.641Z,8.38
2023-02-19T04:34:54.341Z,8.27
2023-02-19T04:37:24.116Z,8.12
2023-02-19T04:39:52.417Z,7.97
2023-02-19T04:42:20.706Z,7.87
2023-02-19T04:44:48.980Z,7.82
2023-02-19T04:47:17.893Z,7.67
2023-02-19T04:49:46.394Z,7.59
2023-02-19T04:52:14.813Z,7.49
2023-02-19T04:54:44.395Z,7.45
2023-02-19T04:57:12.621Z,7.50
2023-02-19T04:59:40.890Z,7.43
2023-02-19T05:02:09.085Z,7.39
2023-02-19T05:04:37.430Z,7.38
2023-02-19T05:07:05.674Z,7.35
2023-02-19T05:09:33.843Z,7.35
2023-02-19T05:12:03.451Z,7.38
2023-02-19T05:14:31.577Z,7.42
2023-02-19T05:16:59.772Z,7.44
2023-02-19T05:19:27.964Z,7.51
2023-02-19T05:21:56.154Z,7.56
2023-02-19T05:24:25.149Z,7.60
2023-02-19T05:26:53.349Z,7.62
2023-02-19T05:29:23.007Z,7.67
2023-02-19T05:31:51.395Z,7.66
2023-02-19T05:34:19.784Z,7.69
2023-02-19T05:36:47.978Z,7.63
2023-02-19T05:39:16.189Z,7.64
2023-02-19T05:41:44.373Z,7.62
2023-02-19T05:44:13.037Z,7.57
2023-02-19T05:46:42.803Z,7.55
2023-02-19T05:49:11.084Z,7.53
2023-02-19T05:51:39.270Z,7.53
2023-02-19T05:54:07.558Z,7.53
2023-02-19T05:56:39.050Z,7.55
2023-02-19T05:59:08.725Z,7.52
2023-02-19T06:01:37.249Z,7.51
2023-02-19T06:04:07.091Z,7.51
2023-02-19T06:06:35.288Z,7.53
2023-02-19T06:09:03.454Z,7.57
2023-02-19T06:11:32.071Z,7.59
2023-02-19T06:14:00.429Z,7.58
2023-02-19T06:16:28.654Z,7.61
2023-02-19T06:18:56.816Z,7.64
2023-02-19T06:21:26.488Z,7.68
2023-02-19T06:23:54.663Z,7.68
2023-02-19T06:26:25.030Z,7.71
2023-02-19T06:28:54.800Z,7.69
2023-02-19T06:31:24.431Z,7.70
2023-02-19T06:33:52.686Z,7.74
2023-02-19T06:36:22.475Z,7.74
2023-02-19T06:38:52.319Z,7.72
2023-02-19T06:41:21.073Z,7.75
2023-02-19T06:43:49.573Z,7.67
2023-02-19T06:46:18.196Z,7.69
2023-02-19T06:48:47.212Z,7.65
2023-02-19T06:51:18.845Z,7.62
2023-02-19T06:53:47.656Z,7.65
2023-02-19T06:56:26.299Z,7.64
2023-02-19T06:58:55.206Z,7.65
2023-02-19T07:01:23.865Z,7.61
2023-02-19T07:03:52.721Z,7.59
2023-02-19T07:06:21.070Z,7.62
2023-02-19T07:08:49.756Z,7.66
2023-02-19T07:11:18.801Z,7.70
2023-02-19T07:13:48.584Z,7.70
2023-02-19T07:16:18.231Z,7.56
2023-02-19T07:18:46.600Z,7.63
2023-02-19T07:21:16.344Z,7.72
2023-02-19T07:23:45.539Z,7.76
2023-02-19T07:26:16.802Z,7.82
2023-02-19T07:28:46.173Z,7.90
2023-02-19T07:31:17.543Z,7.93
2023-02-19T07:33:46.454Z,7.90
2023-02-19T07:36:17.060Z,7.97
2023-02-19T07:38:45.631Z,8.02
2023-02-19T07:41:14.486Z,8.13
2023-02-19T07:43:42.703Z,8.17
2023-02-19T07:46:13.183Z,8.22
2023-02-19T07:48:44.543Z,8.31
2023-02-19T07:51:16.569Z,8.33
2023-02-19T07:53:44.795Z,8.47
2023-02-19T07:56:14.695Z,8.55
2023-02-19T07:58:43.371Z,8.58
2023-02-19T08:01:14.956Z,8.69
2023-02-19T08:03:44.644Z,8.80
2023-02-19T08:06:13.675Z,8.88
2023-02-19T08:08:42.133Z,8.91
2023-02-19T08:11:28.984Z,8.88
2023-02-19T08:13:57.493Z,8.89
2023-02-19T08:16:40.689Z,8.71
2023-02-19T08:19:12.400Z,8.65
2023-02-19T08:21:40.676Z,8.59
2023-02-19T08:24:09.112Z,8.66
2023-02-19T08:26:37.604Z,8.70
2023-02-19T08:29:06.345Z,8.70
2023-02-19T08:31:35.792Z,8.69
2023-02-19T08:34:04.726Z,8.69
2023-02-19T08:36:34.381Z,8.77
2023-02-19T08:39:02.624Z,8.85
2023-02-19T08:41:30.884Z,9.01
2023-02-19T08:43:59.073Z,9.18
2023-02-19T08:46:27.307Z,9.35
2023-02-19T08:48:55.572Z,9.38
2023-02-19T08:51:23.845Z,9.35
2023-02-19T08:53:53.514Z,9.38
2023-02-19T08:56:21.706Z,9.51
2023-02-19T08:58:51.329Z,9.66
2023-02-19T09:01:19.826Z,9.76
2023-02-19T09:03:48.104Z,9.89
2023-02-19T09:06:20.361Z,10.03
2023-02-19T09:08:48.724Z,10.10
2023-02-19T09:11:18.434Z,9.82
2023-02-19T09:13:46.642Z,9.57
2023-02-19T09:16:15.004Z,9.63
2023-02-19T09:18:43.408Z,9.53
2023-02-19T09:21:14.239Z,9.41
2023-02-19T09:23:42.516Z,9.23
2023-02-19T09:26:11.643Z,9.13
2023-02-19T09:28:42.110Z,8.97
2023-02-19T09:31:13.016Z,9.03
2023-02-19T09:33:44.638Z,9.12
2023-02-19T09:36:13.449Z,9.24
2023-02-19T09:38:41.735Z,9.29
2023-02-19T09:41:16.054Z,9.40
2023-02-19T09:43:46.178Z,9.37
2023-02-19T09:46:25.956Z,9.54
2023-02-19T09:48:57.584Z,9.64
2023-02-19T09:51:29.527Z,9.66
2023-02-19T09:54:04.166Z,9.79
2023-02-19T09:56:32.979Z,9.82
2023-02-19T09:59:03.326Z,9.82
2023-02-19T10:01:36.264Z,9.96
2023-02-19T10:04:06.028Z,10.06
2023-02-19T10:06:36.410Z,10.05
2023-02-19T10:09:18.000Z,10.13
2023-02-19T10:11:48.322Z,10.35
2023-02-19T10:14:22.585Z,10.35
2023-02-19T10:16:52.375Z,10.69
2023-02-19T10:19:21.012Z,10.86
2023-02-19T10:21:53.166Z,11.04
2023-02-19T10:24:27.137Z,11.19
2023-02-19T10:26:55.535Z,11.40
2023-02-19T10:29:25.702Z,11.70
2023-02-19T10:32:17.731Z,12.08
2023-02-19T10:34:46.862Z,12.06
2023-02-19T10:37:17.679Z,12.10
2023-02-19T10:39:48.363Z,12.03
2023-02-19T10:42:19.541Z,12.05
2023-02-19T10:44:53.550Z,12.23
2023-02-19T10:47:25.118Z,12.07
2023-02-19T10:49:58.204Z,12.06
2023-02-19T10:52:30.254Z,12.09
2023-02-19T10:55:16.591Z,12.14
2023-02-19T10:57:47.163Z,12.23
2023-02-19T11:00:27.293Z,12.36
2023-02-19T11:03:23.229Z,12.47
2023-02-19T11:05:57.527Z,12.61
2023-02-19T11:08:26.593Z,12.66
2023-02-19T11:10:54.987Z,12.81
2023-02-19T11:13:31.168Z,12.96
2023-02-19T11:16:01.774Z,13.00
2023-02-19T11:18:32.865Z,13.09
2023-02-19T11:21:04.956Z,13.33
2023-02-19T11:23:36.423Z,13.39
2023-02-19T11:26:08.071Z,12.84
2023-02-19T11:28:40.214Z,12.68
2023-02-19T11:31:24.928Z,12.81
2023-02-19T11:33:58.775Z,12.97
2023-02-19T11:36:33.670Z,12.80
2023-02-19T11:39:15.609Z,12.89
2023-02-19T11:42:01.950Z,13.04
2023-02-19T11:44:46.435Z,12.92
2023-02-19T11:47:40.990Z,12.94
2023-02-19T11:50:23.175Z,13.05
2023-02-19T11:53:00.400Z,13.18
2023-02-19T11:55:43.051Z,13.23
2023-02-19T11:58:42.974Z,13.32
2023-02-19T12:01:20.888Z,13.20
2023-02-19T12:04:16.806Z,13.27
2023-02-19T12:06:59.858Z,13.20
2023-02-19T12:09:43.352Z,13.38
2023-02-19T12:12:37.481Z,13.30
2023-02-19T12:15:23.890Z,13.32
2023-02-19T12:18:16.874Z,13.34
2023-02-19T12:20:57.504Z,13.49
2023-02-19T12:23:53.843Z,13.61
2023-02-19T12:26:28.539Z,13.45
2023-02-19T12:29:14.877Z,13.55
2023-02-19T12:32:07.854Z,13.58
2023-02-19T12:34:43.687Z,13.74
2023-02-19T12:37:32.573Z,13.79
2023-02-19T12:40:20.799Z,13.77
2023-02-19T12:42:59.632Z,13.67
2023-02-19T12:45:35.781Z,13.63
2023-02-19T12:48:13.337Z,13.83
2023-02-19T12:50:44.028Z,13.72
2023-02-19T12:53:22.381Z,13.74
2023-02-19T12:55:51.760Z,13.74
2023-02-19T12:58:28.667Z,13.98
2023-02-19T13:01:00.273Z,14.21
2023-02-19T13:03:33.640Z,14.52
2023-02-19T13:06:10.509Z,14.38
2023-02-19T13:09:03.407Z,14.33
2023-02-19T13:11:36.888Z,14.33
2023-02-19T13:14:12.912Z,14.33
2023-02-19T13:16:47.718Z,14.04
2023-02-19T13:19:16.415Z,13.81
2023-02-19T13:22:10.363Z,13.68
2023-02-19T13:24:43.577Z,13.96
2023-02-19T13:31:00.612Z,14.02
2023-02-19T13:33:40.994Z,13.65
2023-02-19T13:36:20.634Z,13.51
2023-02-19T13:38:51.805Z,13.64
2023-02-19T13:41:30.687Z,13.41
2023-02-19T13:44:03.728Z,13.24
2023-02-19T13:46:39.894Z,13.01
2023-02-19T13:49:44.036Z,12.88
2023-02-19T13:52:40.211Z,12.44
2023-02-19T13:55:50.319Z,12.25
2023-02-19T13:59:01.613Z,12.13
2023-02-19T14:02:16.489Z,12.04
2023-02-19T14:04:53.827Z,11.41
2023-02-19T14:08:02.265Z,9.95
2023-02-19T14:10:54.604Z,9.21
2023-02-19T14:14:02.150Z,8.86
2023-02-19T14:16:55.357Z,8.76
2023-02-19T14:19:45.147Z,8.72
2023-02-19T14:23:02.246Z,8.66
2023-02-19T14:25:53.279Z,8.60
2023-02-19T14:28:35.863Z,8.59
2023-02-19T14:31:21.209Z,8.59
2023-02-19T14:33:52.907Z,8.69
2023-02-19T14:36:41.629Z,8.72
2023-02-19T14:39:17.418Z,8.80
2023-02-19T14:41:49.049Z,8.87
2023-02-19T14:44:23.965Z,8.91
2023-02-19T14:46:59.719Z,8.89
2023-02-19T14:49:35.596Z,8.97
2023-02-19T14:52:08.188Z,9.06
2023-02-19T14:54:48.633Z,9.07
2023-02-19T14:57:22.217Z,9.13
2023-02-19T14:59:56.404Z,9.18
2023-02-19T15:02:26.735Z,9.26
2023-02-19T15:04:56.800Z,9.25
2023-02-19T15:07:30.208Z,9.25
2023-02-19T15:10:06.013Z,9.25
2023-02-19T15:12:42.531Z,9.14
2023-02-19T15:15:19.142Z,9.14
2023-02-19T15:17:48.902Z,9.09
2023-02-19T15:20:21.898Z,9.09
2023-02-19T15:22:52.667Z,9.03
2023-02-19T15:25:27.257Z,8.94
2023-02-19T15:27:57.840Z,8.82
2023-02-19T15:30:30.010Z,8.64
2023-02-19T15:33:01.149Z,8.58
2023-02-19T15:35:34.025Z,8.55
2023-02-19T15:38:06.936Z,8.48
2023-02-19T15:40:39.321Z,8.40
2023-02-19T15:43:08.854Z,8.33
2023-02-19T15:45:43.254Z,8.26
2023-02-19T15:48:18.825Z,8.17
2023-02-19T15:50:53.201Z,8.20
2023-02-19T15:53:27.862Z,8.23
2023-02-19T15:56:04.905Z,8.18
2023-02-19T15:58:43.477Z,8.13
2023-02-19T16:01:18.788Z,8.13
2023-02-19T16:03:48.391Z,8.12
2023-02-19T16:06:19.835Z,8.12
2023-02-19T16:09:02.965Z,8.15
2023-02-19T16:11:38.828Z,8.36
2023-02-19T16:14:26.811Z,8.36
2023-02-19T16:16:59.376Z,8.45
2023-02-19T16:19:31.980Z,8.58
2023-02-19T16:22:01.893Z,8.72
2023-02-19T16:24:37.052Z,8.69
2023-02-19T16:27:08.377Z,8.64
2023-02-19T16:29:37.997Z,8.55
2023-02-19T16:32:12.617Z,8.53
2023-02-19T16:34:44.043Z,8.56
2023-02-19T16:37:39.013Z,8.61
2023-02-19T16:40:59.266Z,8.69
2023-02-19T16:43:39.810Z,8.82
2023-02-19T16:46:13.033Z,8.65
2023-02-19T16:48:42.871Z,8.48
2023-02-19T16:51:22.267Z,8.22
2023-02-19T16:53:55.681Z,8.09
2023-02-19T16:56:27.981Z,7.88
2023-02-19T16:59:01.622Z,7.84
2023-02-19T17:01:32.256Z,7.74
2023-02-19T17:04:04.952Z,7.64
2023-02-19T17:06:35.486Z,7.59
2023-02-19T17:09:09.192Z,7.47
2023-02-19T17:11:38.780Z,7.53
2023-02-19T17:14:13.210Z,7.47
2023-02-19T17:16:44.617Z,7.47
2023-02-19T17:19:16.043Z,7.48
2023-02-19T17:21:47.471Z,7.42
2023-02-19T17:24:18.128Z,7.33
2023-02-19T17:26:49.768Z,7.26
2023-02-19T17:29:21.508Z,7.27
2023-02-19T17:31:51.566Z,7.23
2023-02-19T17:34:21.891Z,7.30
2023-02-19T17:36:52.613Z,7.23
2023-02-19T17:39:23.822Z,7.24
2023-02-19T17:41:54.330Z,7.31
2023-02-19T17:44:25.835Z,7.23
2023-02-19T17:46:55.830Z,7.19
2023-02-19T17:49:26.884Z,7.13
2023-02-19T17:51:59.829Z,7.12
2023-02-19T17:54:31.884Z,7.25
2023-02-19T17:57:01.248Z,7.28
2023-02-19T17:59:32.277Z,7.22
2023-02-19T18:02:03.926Z,7.17
2023-02-19T18:04:36.473Z,7.33
2023-02-19T18:07:06.341Z,7.25
2023-02-19T18:09:38.195Z,7.20
2023-02-19T18:12:09.651Z,7.20
2023-02-19T18:14:40.293Z,7.18
2023-02-19T18:17:10.492Z,7.18
2023-02-19T18:19:40.458Z,7.14
2023-02-19T18:22:11.351Z,7.13
2023-02-19T18:24:43.814Z,7.16
2023-02-19T18:27:18.774Z,7.14
2023-02-19T18:29:54.182Z,7.15
2023-02-19T18:32:28.937Z,7.10
2023-02-19T18:35:00.774Z,7.07
2023-02-19T18:37:33.194Z,7.03
2023-02-19T18:40:04.555Z,6.93
2023-02-19T18:42:34.654Z,6.80
2023-02-19T18:45:06.635Z,6.68
2023-02-19T18:47:35.811Z,6.61
2023-02-19T18:50:07.919Z,6.51
2023-02-19T18:52:38.638Z,6.53
2023-02-19T18:55:09.303Z,6.55
2023-02-19T18:57:40.816Z,6.56
2023-02-19T19:00:20.476Z,6.69
2023-02-19T19:02:51.255Z,6.75
2023-02-19T19:05:25.583Z,6.76
2023-02-19T19:07:57.691Z,6.80
2023-02-19T19:10:27.806Z,6.85
2023-02-19T19:12:57.411Z,6.87
2023-02-19T19:15:28.928Z,7.20
2023-02-19T19:17:58.032Z,7.21
2023-02-19T19:20:28.404Z,7.26
2023-02-19T19:22:59.328Z,7.22
2023-02-19T19:25:29.145Z,7.20
2023-02-19T19:28:00.600Z,7.15
2023-02-19T19:30:32.455Z,7.14
2023-02-19T19:33:05.071Z,7.14
2023-02-19T19:35:35.431Z,7.05
2023-02-19T19:38:05.422Z,6.97
2023-02-19T19:40:35.760Z,6.87
2023-02-19T19:43:07.842Z,6.92
2023-02-19T19:45:39.300Z,6.84
2023-02-19T19:48:09.677Z,6.69
2023-02-19T19:50:39.316Z,6.64
2023-02-19T19:53:09.457Z,6.63
2023-02-19T19:55:39.225Z,6.53
2023-02-19T19:58:09.133Z,6.49
2023-02-19T20:00:40.250Z,6.40
2023-02-19T20:03:10.249Z,6.32
2023-02-19T20:05:42.750Z,6.29
2023-02-19T20:08:12.221Z,6.27
2023-02-19T20:10:43.452Z,6.26
2023-02-19T20:13:18.088Z,6.24
2023-02-19T20:15:50.511Z,6.19
2023-02-19T20:18:23.973Z,6.17
2023-02-19T20:21:03.610Z,6.12
2023-02-19T20:23:33.953Z,6.14
2023-02-19T20:26:06.041Z,6.15
2023-02-19T20:28:36.102Z,6.13
2023-02-19T20:31:10.685Z,6.16
2023-02-19T20:33:43.223Z,6.11
2023-02-19T20:36:13.236Z,6.00
2023-02-19T20:38:44.231Z,5.99
2023-02-19T20:41:14.828Z,5.94
2023-02-19T20:43:44.711Z,5.92
2023-02-19T20:46:18.700Z,5.90
2023-02-19T20:48:49.119Z,5.91
2023-02-19T20:51:19.269Z,5.90
2023-02-19T20:53:49.390Z,5.92
2023-02-19T20:56:19.128Z,5.86
2023-02-19T20:58:51.382Z,5.91
2023-02-19T21:01:29.053Z,5.90
2023-02-19T21:03:59.028Z,5.81
2023-02-19T21:06:28.464Z,5.83
2023-02-19T21:08:57.866Z,5.79
2023-02-19T21:11:28.155Z,5.76
2023-02-19T21:14:00.177Z,5.77
2023-02-19T21:16:33.251Z,5.65
2023-02-19T21:19:04.080Z,5.51
2023-02-19T21:21:34.712Z,5.43
2023-02-19T21:24:04.063Z,5.31
2023-02-19T21:26:37.056Z,5.10
2023-02-19T21:29:07.551Z,5.06
2023-02-19T21:31:42.758Z,4.96
2023-02-19T21:34:13.624Z,4.80
2023-02-19T21:36:43.154Z,4.80
2023-02-19T21:39:15.059Z,4.62
2023-02-19T21:41:43.950Z,4.63
2023-02-19T21:44:12.593Z,4.52
2023-02-19T21:46:43.694Z,4.44
2023-02-19T21:49:16.618Z,4.43
2023-02-19T21:51:48.476Z,4.44
2023-02-19T21:54:19.094Z,4.32
2023-02-19T21:56:47.784Z,4.32
2023-02-19T21:59:16.407Z,4.21
2023-02-19T22:01:46.212Z,4.17
2023-02-19T22:04:16.020Z,4.13
2023-02-19T22:06:45.171Z,4.08
2023-02-19T22:09:14.174Z,3.97
2023-02-19T22:11:42.468Z,3.99
2023-02-19T22:14:10.880Z,3.94
2023-02-19T22:16:39.145Z,3.88
2023-02-19T22:19:08.748Z,3.85
2023-02-19T22:21:36.928Z,3.76
2023-02-19T22:24:05.657Z,3.69
2023-02-19T22:26:36.758Z,3.65
2023-02-19T22:29:07.165Z,3.67
2023-02-19T22:31:36.367Z,3.66
2023-02-19T22:34:05.486Z,3.62
2023-02-19T22:36:37.713Z,3.51
2023-02-19T22:39:07.781Z,3.48
2023-02-19T22:41:36.459Z,3.46
2023-02-19T22:44:04.812Z,3.44
2023-02-19T22:46:33.109Z,3.42
2023-02-19T22:49:04.582Z,3.44
2023-02-19T22:51:35.665Z,3.41
2023-02-19T22:54:04.089Z,3.41
2023-02-19T22:56:32.593Z,3.37
2023-02-19T22:59:00.817Z,3.37
2023-02-19T23:01:29.174Z,3.35
2023-02-19T23:03:58.778Z,3.27
2023-02-19T23:06:30.085Z,3.35
2023-02-19T23:09:03.441Z,3.37
2023-02-19T23:11:35.137Z,3.36
2023-02-19T23:14:04.093Z,3.40
2023-02-19T23:16:35.932Z,3.36
2023-02-19T23:19:05.105Z,3.35
2023-02-19T23:21:34.554Z,3.35
2023-02-19T23:24:04.367Z,3.40
2023-02-19T23:26:32.621Z,3.38
2023-02-19T23:29:01.196Z,3.31
2023-02-19T23:31:29.757Z,3.31
2023-02-19T23:33:58.025Z,3.27
2023-02-19T23:36:26.300Z,3.25
2023-02-19T23:38:54.503Z,3.24
2023-02-19T23:41:24.203Z,3.24
2023-02-19T23:43:52.830Z,3.26
2023-02-19T23:46:21.110Z,3.24
2023-02-19T23:48:49.425Z,3.24
2023-02-19T23:51:17.646Z,3.15
2023-02-19T23:53:45.836Z,3.13
2023-02-19T23:56:14.749Z,3.07
2023-02-19T23:58:44.491Z,3.07
